Tooting, United Kingdom
Current Conditions -  °F | °C
As of 9:50 PM on Thursday 27 Nov 2014 (Local Time) from EGLC Reporting Station
Haze Haze  
Wind Chill: 50°   Ceiling: Unl
Heat Index: 50°   Visibility: 2.7mi
Dew Point: 48°   Wind: 8mph
Humidity: 94%   Direction: 80°E
Pressure: 29.59"   Gusts: NA
Location:  51.43°N, 0.18°W
Report Text: EGLC 272150Z AUTO 08007KT 4400 BR FEW008/// SCT010/// 10/09 Q1002
Loading
Personal Weather Stations






























Interactive Weather Map New forecast layout! Learn more

10-Day Weather Forecast

Advertisements
Track Severe Weather on mobile